createdAt,value
2022-11-20T00:04:31.467Z,51.78
2022-11-20T00:09:35.402Z,54.42
2022-11-20T00:14:37.866Z,48.35
2022-11-20T00:19:40.279Z,51.78
2022-11-20T00:24:44.066Z,45.75
2022-11-20T00:29:46.463Z,36.33
2022-11-20T00:34:49.003Z,32.10
2022-11-20T00:39:52.771Z,36.42
2022-11-20T00:44:55.195Z,30.55
2022-11-20T00:49:57.626Z,40.47
2022-11-20T00:55:01.413Z,32.30
2022-11-20T01:00:04.015Z,34.85
2022-11-20T01:05:06.488Z,36.17
2022-11-20T01:10:10.663Z,29.27
2022-11-20T01:15:13.089Z,31.70
2022-11-20T01:20:15.559Z,32.83
2022-11-20T01:25:19.286Z,34.22
2022-11-20T01:30:21.899Z,35.70
2022-11-20T01:35:24.354Z,37.00
2022-11-20T01:40:28.160Z,34.60
2022-11-20T01:46:00.570Z,28.33
2022-11-20T01:51:03.818Z,28.50
2022-11-20T01:56:11.313Z,34.80
2022-11-20T02:01:14.830Z,29.30
2022-11-20T02:11:21.136Z,31.55
2022-11-20T02:16:25.229Z,30.15
2022-11-20T02:21:32.118Z,27.70
2022-11-20T02:26:43.592Z,25.17
2022-11-20T02:31:49.336Z,31.63
2022-11-20T02:36:52.678Z,27.33
2022-11-20T02:41:57.763Z,27.13
2022-11-20T02:47:00.541Z,26.58
2022-11-20T02:52:02.978Z,27.93
2022-11-20T02:57:06.748Z,23.25
2022-11-20T03:02:09.344Z,29.75
2022-11-20T03:07:11.862Z,26.83
2022-11-20T03:12:15.780Z,25.73
2022-11-20T03:17:18.195Z,28.02
2022-11-20T03:22:20.652Z,25.90
2022-11-20T03:27:24.383Z,29.63
2022-11-20T03:32:26.798Z,28.67
2022-11-20T03:37:29.572Z,27.48
2022-11-20T03:42:48.545Z,31.10
2022-11-20T03:47:51.064Z,24.65
2022-11-20T03:52:53.489Z,26.63
2022-11-20T03:57:57.207Z,31.90
2022-11-20T04:03:00.115Z,29.08
2022-11-20T04:08:02.686Z,22.30
2022-11-20T04:13:06.590Z,29.30
2022-11-20T04:18:09.103Z,28.42
2022-11-20T04:23:11.551Z,23.60
2022-11-20T04:28:15.333Z,21.30
2022-11-20T04:33:17.829Z,23.85
2022-11-20T04:38:20.260Z,22.57
2022-11-20T04:43:23.993Z,23.25
2022-11-20T04:48:26.893Z,25.30
2022-11-20T04:53:29.439Z,24.33
2022-11-20T04:58:33.525Z,21.30
2022-11-20T05:03:41.039Z,23.80
2022-11-20T05:08:44.636Z,27.48
2022-11-20T05:13:48.672Z,21.95
2022-11-20T05:18:51.650Z,21.38
2022-11-20T05:23:54.290Z,23.48
2022-11-20T05:28:58.038Z,28.80
2022-11-20T05:34:00.583Z,21.40
2022-11-20T05:39:03.062Z,26.57
2022-11-20T05:44:06.884Z,23.70
2022-11-20T05:49:09.261Z,25.55
2022-11-20T05:54:11.662Z,22.75
2022-11-20T05:59:15.479Z,23.67
2022-11-20T06:04:17.829Z,26.00
2022-11-20T06:09:20.598Z,28.25
2022-11-20T06:14:24.779Z,23.85
2022-11-20T06:19:27.276Z,21.75
2022-11-20T06:24:29.724Z,27.90
2022-11-20T06:29:34.200Z,35.60
2022-11-20T06:34:36.784Z,29.13
2022-11-20T06:39:39.198Z,26.52
2022-11-20T06:44:42.981Z,28.95
2022-11-20T06:49:45.436Z,27.42
2022-11-20T06:54:47.828Z,27.42
2022-11-20T06:59:51.550Z,30.05
2022-11-20T07:04:54.032Z,30.10
2022-11-20T07:09:56.387Z,29.60
2022-11-20T07:15:00.132Z,31.50
2022-11-20T07:20:02.630Z,34.85
2022-11-20T07:25:05.495Z,32.63
2022-11-20T07:30:09.979Z,30.63
2022-11-20T07:35:12.494Z,29.63
2022-11-20T07:40:15.364Z,33.17
2022-11-20T07:45:19.413Z,31.23
2022-11-20T07:50:22.109Z,35.83
2022-11-20T07:55:24.465Z,34.47
2022-11-20T08:00:28.934Z,33.33
2022-11-20T08:05:31.426Z,37.92
2022-11-20T08:10:33.859Z,23.25
2022-11-20T08:15:38.080Z,22.73
2022-11-20T08:20:40.524Z,21.15
2022-11-20T08:25:42.932Z,26.05
2022-11-20T08:30:46.946Z,22.90
2022-11-20T08:35:49.422Z,21.60
2022-11-20T08:41:05.785Z,18.70
2022-11-20T08:46:09.612Z,18.05
2022-11-20T08:51:12.423Z,21.20
2022-11-20T08:56:14.881Z,23.33
2022-11-20T09:01:18.742Z,20.52
2022-11-20T09:06:21.318Z,20.77
2022-11-20T09:11:23.818Z,19.88
2022-11-20T09:16:27.634Z,23.02
2022-11-20T09:21:30.081Z,21.25
2022-11-20T09:26:32.522Z,21.13
2022-11-20T09:31:36.300Z,22.63
2022-11-20T09:36:38.665Z,19.15
2022-11-20T09:41:58.411Z,21.85
2022-11-20T09:47:04.811Z,20.33
2022-11-20T09:52:12.460Z,19.48
2022-11-20T09:57:17.025Z,18.15
2022-11-20T10:02:26.661Z,21.23
2022-11-20T10:07:33.080Z,18.67
2022-11-20T10:12:42.628Z,19.20
2022-11-20T10:18:04.418Z,18.92
2022-11-20T10:23:22.770Z,18.17
2022-11-20T10:28:34.581Z,20.42
2022-11-20T10:34:05.117Z,24.95
2022-11-20T10:39:08.607Z,19.02
2022-11-20T10:44:13.555Z,20.55
2022-11-20T10:49:18.662Z,21.45
2022-11-20T10:54:24.405Z,20.40
2022-11-20T10:59:33.920Z,20.05
2022-11-20T11:04:39.969Z,18.08
2022-11-20T11:09:45.307Z,20.60
2022-11-20T11:14:49.099Z,26.98
2022-11-20T11:20:03.662Z,22.92
2022-11-20T11:25:06.385Z,21.08
2022-11-20T11:30:15.943Z,23.80
2022-11-20T11:35:27.341Z,18.70
2022-11-20T11:40:31.899Z,21.73
2022-11-20T11:45:34.447Z,19.27
2022-11-20T11:50:38.268Z,18.48
2022-11-20T11:55:44.306Z,16.00
2022-11-20T12:00:49.804Z,17.33
2022-11-20T12:05:58.049Z,17.67
2022-11-20T12:11:05.487Z,15.88
2022-11-20T12:16:12.123Z,16.75
2022-11-20T12:21:25.430Z,16.75
2022-11-20T12:26:32.567Z,16.57
2022-11-20T12:31:42.802Z,18.02
2022-11-20T12:36:51.594Z,17.00
2022-11-20T12:42:21.706Z,20.10
2022-11-20T12:47:30.564Z,17.23
2022-11-20T12:52:41.032Z,17.15
2022-11-20T12:57:48.479Z,17.70
2022-11-20T13:03:14.699Z,16.42
2022-11-20T13:08:21.586Z,15.80
2022-11-20T13:13:26.012Z,15.60
2022-11-20T13:18:28.481Z,18.58
2022-11-20T13:23:32.235Z,18.15
2022-11-20T13:28:34.800Z,17.92
2022-11-20T13:33:38.124Z,16.75
2022-11-20T13:38:48.430Z,14.32
2022-11-20T13:43:51.007Z,18.30
2022-11-20T13:48:55.323Z,17.60
2022-11-20T13:54:09.142Z,17.20
2022-11-20T13:59:15.201Z,21.15
2022-11-20T14:04:20.165Z,19.85
2022-11-20T14:09:31.101Z,21.33
2022-11-20T14:14:36.807Z,22.95
2022-11-20T14:19:40.929Z,22.70
2022-11-20T14:24:44.712Z,23.42
2022-11-20T14:29:48.473Z,24.45
2022-11-20T14:34:51.781Z,25.25
2022-11-20T14:39:56.302Z,26.75
2022-11-20T14:44:59.770Z,32.28
2022-11-20T14:50:07.384Z,27.55
2022-11-20T14:55:26.603Z,31.35
2022-11-20T15:00:29.713Z,28.75
2022-11-20T15:05:46.626Z,27.27
2022-11-20T15:10:51.531Z,28.70
2022-11-20T15:15:55.933Z,32.47
2022-11-20T15:20:59.604Z,35.88
2022-11-20T15:31:05.952Z,34.45
2022-11-20T15:36:08.495Z,31.90
2022-11-20T15:41:11.491Z,47.67
2022-11-20T15:46:16.632Z,38.15
2022-11-20T15:51:23.464Z,39.47
2022-11-20T15:56:26.158Z,42.72
2022-11-20T16:01:29.936Z,41.17
2022-11-20T16:06:34.310Z,47.97
2022-11-20T16:11:37.474Z,41.63
2022-11-20T16:16:42.336Z,43.60
2022-11-20T16:21:44.858Z,49.40
2022-11-20T16:26:47.271Z,46.97
2022-11-20T16:31:51.018Z,48.38
2022-11-20T16:36:53.437Z,53.03
2022-11-20T16:41:55.802Z,50.78
2022-11-20T16:46:59.540Z,54.50
2022-11-20T16:52:02.012Z,63.80
2022-11-20T16:57:04.479Z,63.42
2022-11-20T17:02:08.312Z,56.50
2022-11-20T17:07:10.867Z,59.42
2022-11-20T17:12:13.261Z,55.53
2022-11-20T17:17:16.973Z,59.50
2022-11-20T17:22:19.336Z,63.05
2022-11-20T17:27:21.678Z,58.92
2022-11-20T17:32:26.575Z,60.28
2022-11-20T17:37:29.064Z,61.72
2022-11-20T17:42:36.778Z,62.20
2022-11-20T17:47:40.692Z,61.13
2022-11-20T17:52:43.096Z,65.10
2022-11-20T17:57:56.642Z,60.95
2022-11-20T18:03:00.626Z,70.85
2022-11-20T18:08:03.061Z,72.78
2022-11-20T18:13:05.455Z,74.55
2022-11-20T18:18:09.264Z,76.78
2022-11-20T18:23:11.782Z,70.60
2022-11-20T18:28:14.235Z,75.20
2022-11-20T18:33:18.661Z,73.35
2022-11-20T18:38:21.102Z,82.15
2022-11-20T18:43:41.455Z,80.13
2022-11-20T18:48:45.298Z,83.35
2022-11-20T18:53:47.859Z,83.85
2022-11-20T18:58:50.213Z,90.22
2022-11-20T19:03:53.962Z,89.82
2022-11-20T19:08:56.333Z,90.28
2022-11-20T19:13:58.825Z,87.18
2022-11-20T19:19:03.533Z,78.65
2022-11-20T19:24:06.349Z,83.88
2022-11-20T19:29:08.918Z,79.00
2022-11-20T19:34:12.878Z,82.68
2022-11-20T19:39:15.424Z,73.97
2022-11-20T19:44:19.398Z,77.18
2022-11-20T19:49:23.557Z,66.60
2022-11-20T19:54:26.181Z,55.30
2022-11-20T19:59:28.554Z,61.15
2022-11-20T20:04:32.423Z,48.05
2022-11-20T20:09:35.381Z,56.30
2022-11-20T20:14:37.759Z,58.07
2022-11-20T20:19:41.538Z,67.63
2022-11-20T20:29:46.201Z,55.40
2022-11-20T20:34:49.943Z,70.95
2022-11-20T20:39:52.678Z,59.47
2022-11-20T20:45:11.073Z,63.97
2022-11-20T20:50:14.935Z,60.40
2022-11-20T20:55:17.297Z,61.20
2022-11-20T21:00:19.884Z,61.25
2022-11-20T21:05:23.719Z,60.80
2022-11-20T21:10:26.125Z,62.92
2022-11-20T21:15:28.577Z,58.85
2022-11-20T21:20:49.581Z,65.10
2022-11-20T21:25:52.281Z,62.67
2022-11-20T21:30:54.687Z,56.67
2022-11-20T21:36:00.847Z,68.25
2022-11-20T21:41:03.548Z,66.25
2022-11-20T21:46:07.268Z,72.33
2022-11-20T21:56:17.730Z,69.43
2022-11-20T22:01:23.464Z,74.60
2022-11-20T22:06:27.123Z,75.90
2022-11-20T22:11:31.241Z,79.65
2022-11-20T22:16:34.233Z,65.57
2022-11-20T22:21:36.777Z,77.83
2022-11-20T22:26:40.959Z,73.40
2022-11-20T22:31:43.524Z,71.88
2022-11-20T22:36:45.866Z,83.15
2022-11-20T22:41:49.634Z,78.43
2022-11-20T22:51:54.346Z,88.72
2022-11-20T22:56:58.180Z,79.45
2022-11-20T23:02:00.596Z,79.40
2022-11-20T23:07:03.010Z,83.75
2022-11-20T23:12:07.271Z,91.00
2022-11-20T23:17:09.733Z,86.95
2022-11-20T23:22:12.156Z,90.18
2022-11-20T23:27:18.938Z,88.57
2022-11-20T23:32:22.206Z,91.50
2022-11-20T23:37:24.601Z,104.50
2022-11-20T23:42:28.347Z,98.40
2022-11-20T23:47:30.743Z,99.95
2022-11-20T23:52:33.184Z,98.40
2022-11-20T23:57:37.015Z,86.60
